createdAt,value
2022-08-31T00:00:35.377Z,97181.41
2022-08-31T00:03:21.146Z,97180.41
2022-08-31T00:05:48.448Z,97182.03
2022-08-31T00:08:17.721Z,97179.34
2022-08-31T00:10:47.296Z,97186.28
2022-08-31T00:13:16.111Z,97181.53
2022-08-31T00:15:49.234Z,97187.69
2022-08-31T00:18:18.543Z,97181.97
2022-08-31T00:20:47.744Z,97183.22
2022-08-31T00:23:17.818Z,97180.94
2022-08-31T00:25:51.062Z,97181.53
2022-08-31T00:28:19.962Z,97181.09
2022-08-31T00:30:48.703Z,97176.81
2022-08-31T00:33:25.698Z,97178.63
2022-08-31T00:36:01.256Z,97182.31
2022-08-31T00:38:28.878Z,97183.56
2022-08-31T00:40:58.977Z,97184.38
2022-08-31T00:43:41.845Z,97192.16
2022-08-31T00:46:15.008Z,97178.59
2022-08-31T00:48:47.762Z,97181.50
2022-08-31T00:51:19.519Z,97174.91
2022-08-31T00:53:48.874Z,97176.69
2022-08-31T00:56:19.636Z,97170.69
2022-08-31T00:58:54.291Z,97173.47
2022-08-31T01:01:22.781Z,97174.28
2022-08-31T01:03:51.306Z,97171.69
2022-08-31T01:06:19.466Z,97159.72
2022-08-31T01:08:47.991Z,97162.13
2022-08-31T01:11:27.893Z,97167.91
2022-08-31T01:13:59.285Z,97160.59
2022-08-31T01:17:00.769Z,97154.03
2022-08-31T01:19:39.973Z,97157.44
2022-08-31T01:22:16.633Z,97164.94
2022-08-31T01:24:49.033Z,97159.03
2022-08-31T01:27:31.340Z,97156.94
2022-08-31T01:30:09.495Z,97155.41
2022-08-31T01:32:38.330Z,97158.84
2022-08-31T01:35:11.336Z,97157.06
2022-08-31T01:37:42.392Z,97164.44
2022-08-31T01:40:13.887Z,97156.66
2022-08-31T01:42:55.008Z,97165.25
2022-08-31T01:45:23.357Z,97150.44
2022-08-31T01:47:52.409Z,97148.44
2022-08-31T01:50:20.815Z,97157.84
2022-08-31T01:52:51.506Z,97158.59
2022-08-31T01:55:19.361Z,97157.38
2022-08-31T01:57:47.533Z,97161.75
2022-08-31T02:00:16.637Z,97155.69
2022-08-31T02:02:45.107Z,97157.88
2022-08-31T02:05:15.124Z,97152.72
2022-08-31T02:07:43.684Z,97152.28
2022-08-31T02:10:11.953Z,97148.19
2022-08-31T02:12:47.802Z,97140.44
2022-08-31T02:15:18.100Z,97153.63
2022-08-31T02:17:45.641Z,97152.34
2022-08-31T02:20:13.438Z,97151.03
2022-08-31T02:22:40.787Z,97154.34
2022-08-31T02:25:09.423Z,97153.22
2022-08-31T02:27:37.531Z,97156.69
2022-08-31T02:30:07.643Z,97151.44
2022-08-31T02:32:34.704Z,97153.84
2022-08-31T02:35:02.148Z,97159.19
2022-08-31T02:37:29.779Z,97162.66
2022-08-31T02:39:56.892Z,97160.81
2022-08-31T02:42:24.302Z,97158.97
2022-08-31T02:44:51.660Z,97162.66
2022-08-31T02:47:19.360Z,97163.22
2022-08-31T02:49:46.325Z,97159.31
2022-08-31T02:52:13.571Z,97159.22
2022-08-31T02:54:40.779Z,97160.84
2022-08-31T02:57:08.447Z,97159.00
2022-08-31T02:59:35.645Z,97156.34
2022-08-31T03:02:02.973Z,97157.66
2022-08-31T03:04:32.832Z,97165.91
2022-08-31T03:06:59.907Z,97163.50
2022-08-31T03:09:27.098Z,97163.25
2022-08-31T03:11:54.510Z,97160.13
2022-08-31T03:14:21.868Z,97164.78
2022-08-31T03:16:51.802Z,97160.69
2022-08-31T03:19:19.601Z,97162.88
2022-08-31T03:21:47.762Z,97167.19
2022-08-31T03:24:22.332Z,97170.41
2022-08-31T03:26:54.995Z,97172.31
2022-08-31T03:29:22.701Z,97164.16
2022-08-31T03:31:49.728Z,97165.19
2022-08-31T03:34:17.419Z,97171.25
2022-08-31T03:36:44.526Z,97181.88
2022-08-31T03:39:13.035Z,97177.75
2022-08-31T03:41:48.769Z,97178.94
2022-08-31T03:44:16.552Z,97182.97
2022-08-31T03:46:46.008Z,97186.66
2022-08-31T03:49:13.012Z,97182.91
2022-08-31T03:51:40.338Z,97188.66
2022-08-31T03:54:07.479Z,97191.63
2022-08-31T03:56:35.119Z,97193.72
2022-08-31T03:59:03.084Z,97197.84
2022-08-31T04:01:30.333Z,97198.31
2022-08-31T04:03:58.019Z,97192.63
2022-08-31T04:06:25.126Z,97200.06
2022-08-31T04:08:52.771Z,97202.72
2022-08-31T04:11:44.448Z,97201.59
2022-08-31T04:14:15.418Z,97198.41
2022-08-31T04:16:44.242Z,97202.06
2022-08-31T04:19:16.741Z,97200.59
2022-08-31T04:21:44.947Z,97202.00
2022-08-31T04:24:12.984Z,97207.88
2022-08-31T04:26:41.251Z,97205.94
2022-08-31T04:29:13.764Z,97202.63
2022-08-31T04:31:41.176Z,97203.91
2022-08-31T04:34:08.688Z,97200.50
2022-08-31T04:36:36.420Z,97209.31
2022-08-31T04:39:05.710Z,97210.91
2022-08-31T04:41:35.982Z,97203.53
2022-08-31T04:44:04.796Z,97211.44
2022-08-31T04:46:33.791Z,97212.44
2022-08-31T04:49:01.491Z,97212.56
2022-08-31T04:51:36.314Z,97204.81
2022-08-31T04:54:10.116Z,97206.38
2022-08-31T04:56:43.723Z,97209.94
2022-08-31T04:59:15.338Z,97209.63
2022-08-31T05:01:45.915Z,97198.47
2022-08-31T05:04:16.502Z,97205.44
2022-08-31T05:06:46.179Z,97192.34
2022-08-31T05:09:18.873Z,97197.00
2022-08-31T05:11:47.627Z,97192.22
2022-08-31T05:14:15.276Z,97194.88
2022-08-31T05:16:42.486Z,97193.38
2022-08-31T05:19:10.081Z,97189.38
2022-08-31T05:21:40.213Z,97189.94
2022-08-31T05:24:09.848Z,97180.19
2022-08-31T05:26:45.036Z,97185.59
2022-08-31T05:29:16.625Z,97179.56
2022-08-31T05:31:50.267Z,97179.41
2022-08-31T05:34:23.111Z,97174.69
2022-08-31T05:36:55.633Z,97178.00
2022-08-31T05:39:26.852Z,97178.81
2022-08-31T05:41:54.882Z,97177.97
2022-08-31T05:44:22.874Z,97179.00
2022-08-31T05:47:00.905Z,97177.91
2022-08-31T05:49:32.569Z,97173.72
2022-08-31T05:52:01.196Z,97173.44
2022-08-31T05:54:29.050Z,97168.22
2022-08-31T05:57:01.230Z,97161.38
2022-08-31T05:59:29.902Z,97160.25
2022-08-31T06:01:57.704Z,97157.66
2022-08-31T06:04:25.007Z,97161.22
2022-08-31T06:06:52.685Z,97154.09
2022-08-31T06:09:20.350Z,97152.06
2022-08-31T06:11:47.977Z,97149.88
2022-08-31T06:14:15.102Z,97144.16
2022-08-31T06:16:44.378Z,97152.25
2022-08-31T06:19:19.059Z,97146.59
2022-08-31T06:21:51.334Z,97147.47
2022-08-31T06:24:20.284Z,97143.91
2022-08-31T06:26:57.373Z,97147.13
2022-08-31T06:29:26.383Z,97145.91
2022-08-31T06:31:53.813Z,97142.00
2022-08-31T06:34:21.357Z,97140.22
2022-08-31T06:36:48.682Z,97145.03
2022-08-31T06:39:16.612Z,97143.44
2022-08-31T06:41:44.238Z,97143.78
2022-08-31T06:44:14.164Z,97152.63
2022-08-31T06:46:41.987Z,97146.97
2022-08-31T06:49:14.780Z,97152.56
2022-08-31T06:51:44.591Z,97147.19
2022-08-31T06:54:30.605Z,97134.28
2022-08-31T06:56:59.452Z,97144.91
2022-08-31T06:59:29.339Z,97131.38
2022-08-31T07:01:59.044Z,97138.09
2022-08-31T07:04:27.538Z,97132.28
2022-08-31T07:06:54.629Z,97140.19
2022-08-31T07:09:21.901Z,97124.50
2022-08-31T07:11:51.574Z,97131.28
2022-08-31T07:14:24.888Z,97124.97
2022-08-31T07:16:54.515Z,97128.75
2022-08-31T07:19:22.310Z,97127.09
2022-08-31T07:21:52.855Z,97134.16
2022-08-31T07:24:24.179Z,97133.09
2022-08-31T07:26:54.665Z,97124.38
2022-08-31T07:29:25.536Z,97117.78
2022-08-31T07:31:53.200Z,97120.84
2022-08-31T07:34:26.007Z,97123.84
2022-08-31T07:37:17.752Z,97127.31
2022-08-31T07:40:07.459Z,97119.44
2022-08-31T07:42:47.031Z,97125.53
2022-08-31T07:45:29.171Z,97115.88
2022-08-31T07:47:59.965Z,97114.91
2022-08-31T07:50:27.691Z,97114.63
2022-08-31T07:52:55.861Z,97104.28
2022-08-31T07:55:25.027Z,97106.22
2022-08-31T07:57:54.048Z,97110.59
2022-08-31T08:00:33.290Z,97110.13
2022-08-31T08:03:07.919Z,97115.59
2022-08-31T08:05:38.959Z,97111.34
2022-08-31T08:08:10.669Z,97120.97
2022-08-31T08:10:43.959Z,97108.03
2022-08-31T08:13:17.365Z,97111.03
2022-08-31T08:15:46.962Z,97108.31
2022-08-31T08:18:17.444Z,97113.47
2022-08-31T08:20:44.933Z,97099.59
2022-08-31T08:23:15.194Z,97099.94
2022-08-31T08:25:49.503Z,97099.66
2022-08-31T08:31:17.137Z,97109.81
2022-08-31T08:33:45.720Z,97108.63
2022-08-31T08:36:15.374Z,97111.19
2022-08-31T08:38:47.502Z,97106.81
2022-08-31T08:41:24.632Z,97105.50
2022-08-31T08:43:59.354Z,97105.56
2022-08-31T08:46:38.999Z,97096.47
2022-08-31T08:49:20.645Z,97106.91
2022-08-31T08:51:53.181Z,97103.78
2022-08-31T08:54:45.913Z,97097.84
2022-08-31T08:57:30.514Z,97091.34
2022-08-31T09:00:04.682Z,97092.13
2022-08-31T09:02:39.663Z,97092.41
2022-08-31T09:05:35.403Z,97085.78
2022-08-31T09:08:29.307Z,97086.88
2022-08-31T09:11:18.956Z,97092.31
2022-08-31T09:14:10.901Z,97089.03
2022-08-31T09:17:16.821Z,97083.72
2022-08-31T09:20:01.868Z,97080.13
2022-08-31T09:22:34.875Z,97076.47
2022-08-31T09:25:03.839Z,97073.28
2022-08-31T09:27:46.974Z,97063.38
2022-08-31T09:30:32.783Z,97055.25
2022-08-31T09:32:59.944Z,97051.97
2022-08-31T09:35:42.942Z,97054.06
2022-08-31T09:38:16.611Z,97048.13
2022-08-31T09:40:53.340Z,97054.06
2022-08-31T09:43:25.771Z,97051.28
2022-08-31T09:46:05.314Z,97049.44
2022-08-31T09:48:52.154Z,97051.94
2022-08-31T09:51:29.396Z,97041.66
2022-08-31T09:54:37.404Z,97037.03
2022-08-31T09:57:10.616Z,97041.63
2022-08-31T09:59:45.686Z,97036.22
2022-08-31T10:02:27.530Z,97039.19
2022-08-31T10:04:58.503Z,97031.56
2022-08-31T10:07:31.554Z,97026.03
2022-08-31T10:10:31.269Z,97025.41
2022-08-31T10:13:09.140Z,97029.09
2022-08-31T10:15:47.281Z,97017.41
2022-08-31T10:18:29.372Z,97015.72
2022-08-31T10:21:21.596Z,97008.91
2022-08-31T10:23:59.398Z,96995.34
2022-08-31T10:26:54.633Z,96983.75
2022-08-31T10:29:28.921Z,96983.09
2022-08-31T10:31:59.203Z,96974.88
2022-08-31T10:34:53.302Z,96979.19
2022-08-31T10:37:55.820Z,96975.31
2022-08-31T10:40:32.351Z,96974.16
2022-08-31T10:43:08.762Z,96973.41
2022-08-31T10:45:43.406Z,96961.16
2022-08-31T10:48:13.733Z,96956.44
2022-08-31T10:51:28.468Z,96956.06
2022-08-31T10:54:17.461Z,96958.63
2022-08-31T10:57:18.856Z,96961.84
2022-08-31T10:59:57.828Z,96959.78
2022-08-31T11:02:30.755Z,96964.72
2022-08-31T11:05:06.593Z,96960.03
2022-08-31T11:07:58.908Z,96962.22
2022-08-31T11:10:47.688Z,96970.69
2022-08-31T11:13:54.030Z,96979.19
2022-08-31T11:16:44.101Z,96985.19
2022-08-31T11:19:17.504Z,96970.47
2022-08-31T11:22:02.327Z,96976.13
2022-08-31T11:25:03.679Z,96965.53
2022-08-31T11:27:39.896Z,96966.06
2022-08-31T11:30:24.701Z,96956.88
2022-08-31T11:33:07.869Z,96949.34
2022-08-31T11:35:50.223Z,96950.97
2022-08-31T11:38:54.820Z,96954.47
2022-08-31T11:41:49.025Z,96954.78
2022-08-31T11:44:42.535Z,96957.44
2022-08-31T11:47:29.034Z,96953.00
2022-08-31T11:49:59.881Z,96955.34
2022-08-31T11:52:48.649Z,96961.75
2022-08-31T11:55:21.352Z,96953.78
2022-08-31T11:58:07.773Z,96955.03
2022-08-31T12:00:57.517Z,96951.22
2022-08-31T12:03:46.207Z,96943.44
2022-08-31T12:06:42.997Z,96941.75
2022-08-31T12:09:11.653Z,96942.22
2022-08-31T12:11:47.885Z,96951.13
2022-08-31T12:14:50.343Z,96945.91
2022-08-31T12:17:31.986Z,96943.59
2022-08-31T12:20:09.839Z,96936.69
2022-08-31T12:23:00.636Z,96937.97
2022-08-31T12:25:54.816Z,96937.88
2022-08-31T12:28:39.213Z,96936.75
2022-08-31T12:31:13.751Z,96932.44
2022-08-31T12:34:05.577Z,96930.25
2022-08-31T12:36:38.198Z,96934.94
2022-08-31T12:39:12.829Z,96933.53
2022-08-31T12:41:57.412Z,96931.63
2022-08-31T12:44:38.134Z,96932.16
2022-08-31T12:47:32.327Z,96939.47
2022-08-31T12:50:17.854Z,96938.66
2022-08-31T12:53:08.919Z,96937.31
2022-08-31T12:56:01.250Z,96943.25
2022-08-31T12:58:51.313Z,96949.91
2022-08-31T13:01:26.213Z,96953.00
2022-08-31T13:03:58.883Z,96958.09
2022-08-31T13:06:29.665Z,96948.59
2022-08-31T13:08:59.346Z,96947.78
2022-08-31T13:11:42.849Z,96950.34
2022-08-31T13:14:21.126Z,96952.31
2022-08-31T13:16:51.360Z,96951.22
2022-08-31T13:19:29.776Z,96942.59
2022-08-31T13:22:10.265Z,96949.16
2022-08-31T13:24:46.081Z,96944.22
2022-08-31T13:27:27.100Z,96945.53
2022-08-31T13:30:00.387Z,96940.41
2022-08-31T13:32:34.638Z,96940.22
2022-08-31T13:35:11.340Z,96931.63
2022-08-31T13:37:43.852Z,96930.69
2022-08-31T13:40:17.181Z,96921.97
2022-08-31T13:42:50.813Z,96923.00
2022-08-31T13:45:40.736Z,96922.78
2022-08-31T13:48:15.155Z,96909.28
2022-08-31T13:50:56.477Z,96906.06
2022-08-31T13:53:37.733Z,96908.47
2022-08-31T13:56:57.917Z,96905.25
2022-08-31T13:59:38.770Z,96895.38
2022-08-31T14:02:16.435Z,96893.13
2022-08-31T14:04:49.719Z,96900.59
2022-08-31T14:07:24.889Z,96903.13
2022-08-31T14:10:02.584Z,96903.47
2022-08-31T14:12:39.970Z,96909.91
2022-08-31T14:15:20.616Z,96910.72
2022-08-31T14:21:20.474Z,96915.63
2022-08-31T14:24:05.331Z,96920.22
2022-08-31T14:26:37.087Z,96920.81
2022-08-31T14:29:13.156Z,96916.03
2022-08-31T14:31:58.122Z,96925.66
2022-08-31T14:34:34.144Z,96916.44
2022-08-31T14:37:04.434Z,96904.84
2022-08-31T14:39:37.597Z,96900.47
2022-08-31T14:42:09.577Z,96903.19
2022-08-31T14:44:40.964Z,96916.97
2022-08-31T14:47:10.340Z,96919.41
2022-08-31T14:49:38.166Z,96925.38
2022-08-31T14:52:06.707Z,96938.38
2022-08-31T14:54:35.868Z,96938.38
2022-08-31T14:57:33.785Z,96946.41
2022-08-31T15:00:29.124Z,96946.38
2022-08-31T15:02:57.013Z,96950.03
2022-08-31T15:05:25.686Z,96959.28
2022-08-31T15:07:54.843Z,96939.44
2022-08-31T15:10:25.950Z,96949.72
2022-08-31T15:12:53.930Z,96950.63
2022-08-31T15:15:21.606Z,96941.22
2022-08-31T15:17:51.947Z,96935.91
2022-08-31T15:20:21.362Z,96939.56
2022-08-31T15:22:51.964Z,96939.22
2022-08-31T15:25:20.926Z,96940.81
2022-08-31T15:27:48.648Z,96933.72
2022-08-31T15:30:20.176Z,96934.25
2022-08-31T15:32:49.012Z,96921.78
2022-08-31T15:35:23.881Z,96928.38
2022-08-31T15:37:59.008Z,96917.09
2022-08-31T15:40:39.231Z,96918.16
2022-08-31T15:43:09.781Z,96916.00
2022-08-31T15:45:37.264Z,96910.38
2022-08-31T15:48:23.740Z,96911.25
2022-08-31T15:50:57.728Z,96913.88
2022-08-31T15:53:27.586Z,96911.09
2022-08-31T15:55:54.762Z,96907.53
2022-08-31T15:58:25.077Z,96918.34
2022-08-31T16:00:52.509Z,96911.22
2022-08-31T16:03:19.555Z,96907.72
2022-08-31T16:05:46.811Z,96907.09
2022-08-31T16:08:23.067Z,96911.34
2022-08-31T16:10:50.511Z,96911.50
2022-08-31T16:13:27.377Z,96908.50
2022-08-31T16:15:54.662Z,96917.97
2022-08-31T16:18:23.041Z,96921.06
2022-08-31T16:20:50.889Z,96927.31
2022-08-31T16:23:18.451Z,96928.28
2022-08-31T16:25:49.380Z,96936.16
2022-08-31T16:28:20.057Z,96946.75
2022-08-31T16:30:47.845Z,96955.16
2022-08-31T16:33:14.610Z,96951.19
2022-08-31T16:35:41.938Z,96952.25
2022-08-31T16:38:08.993Z,96949.03
2022-08-31T16:40:36.227Z,96950.06
2022-08-31T16:43:04.544Z,96942.47
2022-08-31T16:45:31.875Z,96954.31
2022-08-31T16:48:18.362Z,96948.75
2022-08-31T16:50:50.311Z,96947.13
2022-08-31T16:53:21.178Z,96945.59
2022-08-31T16:55:48.811Z,96946.88
2022-08-31T16:58:29.548Z,96945.34
2022-08-31T17:01:16.137Z,96960.50
2022-08-31T17:04:00.834Z,96960.72
2022-08-31T17:06:31.821Z,96962.66
2022-08-31T17:09:02.005Z,96985.66
2022-08-31T17:11:35.795Z,96983.41
2022-08-31T17:14:06.678Z,96982.81
2022-08-31T17:16:36.839Z,96973.44
2022-08-31T17:19:11.395Z,96981.22
2022-08-31T17:22:04.999Z,97003.16
2022-08-31T17:24:39.782Z,96998.09
2022-08-31T17:27:10.302Z,97002.28
2022-08-31T17:29:48.717Z,97012.19
2022-08-31T17:32:19.357Z,97007.28
2022-08-31T17:34:52.001Z,97023.59
2022-08-31T17:37:32.133Z,97035.84
2022-08-31T17:40:01.610Z,97045.81
2022-08-31T17:42:29.447Z,97052.94
2022-08-31T17:44:58.377Z,97052.69
2022-08-31T17:47:27.377Z,97062.91
2022-08-31T17:49:55.357Z,97062.50
2022-08-31T17:52:25.380Z,97063.75
2022-08-31T17:54:55.920Z,97064.56
2022-08-31T17:57:25.439Z,97061.75
2022-08-31T18:00:03.772Z,97068.78
2022-08-31T18:02:35.163Z,97063.03
2022-08-31T18:05:09.638Z,97057.28
2022-08-31T18:07:43.850Z,97061.84
2022-08-31T18:10:13.174Z,97062.91
2022-08-31T18:12:42.422Z,97069.94
2022-08-31T18:15:11.567Z,97074.34
2022-08-31T18:17:39.373Z,97071.88
2022-08-31T18:20:12.917Z,97072.09
2022-08-31T18:22:46.065Z,97070.94
2022-08-31T18:25:15.483Z,97081.28
2022-08-31T18:27:42.814Z,97087.25
2022-08-31T18:30:16.806Z,97090.19
2022-08-31T18:32:47.385Z,97082.03
2022-08-31T18:35:18.186Z,97065.16
2022-08-31T18:37:46.283Z,97071.34
2022-08-31T18:40:36.427Z,97088.28
2022-08-31T18:43:23.021Z,97080.03
2022-08-31T18:45:54.128Z,97076.56
2022-08-31T18:48:26.434Z,97071.03
2022-08-31T18:50:55.737Z,97074.50
2022-08-31T18:53:33.027Z,97073.91
2022-08-31T18:56:10.381Z,97072.66
2022-08-31T18:58:39.008Z,97073.91
2022-08-31T19:01:11.306Z,97077.63
2022-08-31T19:03:42.959Z,97078.06
2022-08-31T19:06:20.624Z,97078.91
2022-08-31T19:08:49.049Z,97086.94
2022-08-31T19:11:26.769Z,97091.69
2022-08-31T19:13:59.264Z,97088.13
2022-08-31T19:16:31.932Z,97097.22
2022-08-31T19:19:03.366Z,97093.16
2022-08-31T19:21:37.799Z,97088.84
2022-08-31T19:24:08.971Z,97088.00
2022-08-31T19:26:49.702Z,97105.34
2022-08-31T19:29:22.983Z,97095.22
2022-08-31T19:31:51.676Z,97095.06
2022-08-31T19:34:25.687Z,97098.38
2022-08-31T19:36:55.387Z,97097.13
2022-08-31T19:39:26.902Z,97095.09
2022-08-31T19:42:00.214Z,97087.28
2022-08-31T19:44:29.325Z,97084.75
2022-08-31T19:47:26.321Z,97100.81
2022-08-31T19:49:53.998Z,97097.34
2022-08-31T19:52:21.403Z,97106.03
2022-08-31T19:54:50.178Z,97095.13
2022-08-31T19:57:17.920Z,97099.09
2022-08-31T19:59:45.548Z,97109.56
2022-08-31T20:02:14.627Z,97112.66
2022-08-31T20:04:43.041Z,97108.78
2022-08-31T20:07:11.017Z,97099.53
2022-08-31T20:09:38.646Z,97111.44
2022-08-31T20:12:10.071Z,97108.19
2022-08-31T20:14:47.246Z,97126.91
2022-08-31T20:17:15.280Z,97128.56
2022-08-31T20:19:43.171Z,97133.31
2022-08-31T20:22:11.230Z,97124.00
2022-08-31T20:24:44.000Z,97128.13
2022-08-31T20:27:15.605Z,97129.16
2022-08-31T20:29:43.662Z,97116.59
2022-08-31T20:32:11.641Z,97118.47
2022-08-31T20:34:39.608Z,97116.63
2022-08-31T20:37:07.885Z,97112.94
2022-08-31T20:39:42.920Z,97119.91
2022-08-31T20:42:12.525Z,97114.56
2022-08-31T20:44:49.013Z,97118.88
2022-08-31T20:47:35.093Z,97111.66
2022-08-31T20:50:07.483Z,97107.78
2022-08-31T20:52:36.423Z,97113.75
2022-08-31T20:55:06.889Z,97117.06
2022-08-31T20:57:36.621Z,97106.38
2022-08-31T21:00:06.646Z,97106.16
2022-08-31T21:02:41.013Z,97104.09
2022-08-31T21:05:37.055Z,97098.97
2022-08-31T21:08:00.084Z,97097.72
2022-08-31T21:10:37.812Z,97089.31
2022-08-31T21:13:09.254Z,97093.63
2022-08-31T21:15:42.569Z,97092.75
2022-08-31T21:18:11.116Z,97086.63
2022-08-31T21:20:38.709Z,97078.59
2022-08-31T21:23:08.226Z,97076.97
2022-08-31T21:25:40.952Z,97086.22
2022-08-31T21:28:09.174Z,97083.97
2022-08-31T21:30:38.270Z,97075.13
2022-08-31T21:33:05.987Z,97072.44
2022-08-31T21:35:33.496Z,97074.31
2022-08-31T21:38:03.424Z,97076.75
2022-08-31T21:40:31.778Z,97081.28
2022-08-31T21:42:59.321Z,97070.81
2022-08-31T21:45:29.961Z,97073.91
2022-08-31T21:47:57.262Z,97076.34
2022-08-31T21:50:28.863Z,97076.34
2022-08-31T21:53:00.245Z,97070.19
2022-08-31T21:55:28.566Z,97066.91
2022-08-31T21:57:56.192Z,97065.66
2022-08-31T22:00:30.137Z,97073.47
2022-08-31T22:03:09.845Z,97084.81
2022-08-31T22:05:44.340Z,97080.88
2022-08-31T22:08:15.073Z,97070.34
2022-08-31T22:10:44.604Z,97078.38
2022-08-31T22:13:16.764Z,97069.97
2022-08-31T22:15:48.351Z,97069.31
2022-08-31T22:21:06.889Z,97052.91
2022-08-31T22:23:38.659Z,97055.34
2022-08-31T22:26:08.689Z,97049.19
2022-08-31T22:28:37.769Z,97049.19
2022-08-31T22:31:05.476Z,97049.19
2022-08-31T22:33:37.049Z,97039.13
2022-08-31T22:36:10.731Z,97044.06
2022-08-31T22:38:45.288Z,97029.41
2022-08-31T22:41:13.334Z,97038.50
2022-08-31T22:43:41.250Z,97036.84
2022-08-31T22:46:16.216Z,97040.53
2022-08-31T22:48:44.448Z,97034.16
2022-08-31T22:51:17.086Z,97030.28
2022-08-31T22:53:47.797Z,97032.31
2022-08-31T22:56:22.367Z,97031.09
2022-08-31T22:58:51.896Z,97025.13
2022-08-31T23:01:27.278Z,97020.41
2022-08-31T23:03:57.801Z,97013.41
2022-08-31T23:06:27.379Z,97026.38
2022-08-31T23:08:56.524Z,97025.09
2022-08-31T23:11:28.623Z,97032.31
2022-08-31T23:13:59.758Z,97026.97
2022-08-31T23:16:55.702Z,97026.56
2022-08-31T23:19:27.240Z,97026.72
2022-08-31T23:21:57.652Z,97031.47
2022-08-31T23:24:32.669Z,97033.13
2022-08-31T23:27:04.661Z,97023.66
2022-08-31T23:29:37.138Z,97022.84
2022-08-31T23:32:04.995Z,97022.03
2022-08-31T23:34:39.323Z,97026.13
2022-08-31T23:37:09.494Z,97021.00
2022-08-31T23:39:44.038Z,97019.34
2022-08-31T23:42:14.046Z,97022.63
2022-08-31T23:44:46.790Z,97015.25
2022-08-31T23:47:17.846Z,97017.91
2022-08-31T23:49:51.768Z,97016.66
2022-08-31T23:52:22.118Z,97018.09
2022-08-31T23:54:51.700Z,97011.72
2022-08-31T23:57:31.786Z,97007.63
